createdAt,value
2018-07-09T00:01:00.472Z,25.20
2018-07-09T00:02:03.909Z,25.20
2018-07-09T00:03:10.680Z,25.20
2018-07-09T00:04:14.023Z,25.20
2018-07-09T00:05:17.500Z,24.90
2018-07-09T00:06:20.937Z,25.20
2018-07-09T00:07:24.172Z,25.20
2018-07-09T00:08:27.628Z,25.30
2018-07-09T00:09:30.966Z,25.20
2018-07-09T00:10:46.011Z,25.20
2018-07-09T00:11:49.459Z,25.20
2018-07-09T00:12:52.798Z,25.20
2018-07-09T00:13:56.106Z,25.20
2018-07-09T00:16:02.889Z,25.70
2018-07-09T00:17:06.216Z,25.10
2018-07-09T00:18:09.565Z,25.10
2018-07-09T00:19:12.949Z,25.20
2018-07-09T00:20:16.389Z,25.20
2018-07-09T00:21:19.724Z,25.20
2018-07-09T00:22:23.049Z,25.20
2018-07-09T00:23:26.497Z,25.20
2018-07-09T00:25:32.908Z,25.20
2018-07-09T00:26:36.245Z,25.20
2018-07-09T00:27:39.621Z,25.20
2018-07-09T00:28:43.029Z,25.20
2018-07-09T00:29:46.427Z,25.10
2018-07-09T00:30:49.773Z,25.10
2018-07-09T00:31:53.094Z,25.10
2018-07-09T00:32:57.316Z,25.10
2018-07-09T00:34:00.821Z,25.10
2018-07-09T00:35:04.108Z,25.10
2018-07-09T00:36:07.468Z,25.30
2018-07-09T00:37:10.787Z,25.10
2018-07-09T00:38:14.139Z,25.10
2018-07-09T00:39:17.454Z,25.30
2018-07-09T00:40:20.889Z,25.30
2018-07-09T00:41:24.480Z,25.30
2018-07-09T00:42:27.942Z,25.40
2018-07-09T00:43:31.240Z,25.30
2018-07-09T00:44:34.553Z,25.40
2018-07-09T00:45:37.921Z,25.40
2018-07-09T00:46:41.240Z,25.30
2018-07-09T00:47:44.561Z,25.30
2018-07-09T00:48:47.944Z,25.30
2018-07-09T00:49:51.261Z,25.20
2018-07-09T00:50:55.010Z,25.10
2018-07-09T00:51:58.487Z,25.10
2018-07-09T00:53:01.864Z,25.10
2018-07-09T00:54:05.292Z,25.10
2018-07-09T00:55:08.589Z,25.10
2018-07-09T00:56:12.048Z,25.00
2018-07-09T00:57:15.596Z,25.10
2018-07-09T00:58:18.959Z,25.10
2018-07-09T00:59:22.299Z,25.10
2018-07-09T01:00:25.652Z,25.10
2018-07-09T01:01:29.024Z,25.10
2018-07-09T01:02:32.408Z,25.10
2018-07-09T01:03:35.790Z,25.10
2018-07-09T01:04:39.117Z,25.00
2018-07-09T01:05:42.540Z,25.00
2018-07-09T01:06:45.924Z,25.00
2018-07-09T01:07:49.229Z,25.00
2018-07-09T01:08:52.664Z,25.00
2018-07-09T01:09:56.135Z,25.00
2018-07-09T01:11:10.683Z,25.10
2018-07-09T01:12:14.013Z,25.00
2018-07-09T01:13:19.257Z,25.00
2018-07-09T01:14:22.744Z,25.00
2018-07-09T01:15:26.081Z,25.00
2018-07-09T01:16:29.404Z,25.00
2018-07-09T01:17:32.736Z,25.00
2018-07-09T01:18:36.328Z,25.00
2018-07-09T01:19:39.625Z,25.00
2018-07-09T01:20:42.973Z,25.00
2018-07-09T01:21:46.354Z,25.00
2018-07-09T01:22:49.837Z,25.00
2018-07-09T01:23:53.167Z,25.00
2018-07-09T01:24:56.541Z,25.00
2018-07-09T01:25:59.871Z,25.00
2018-07-09T01:27:03.236Z,25.00
2018-07-09T01:28:06.634Z,25.00
2018-07-09T01:29:09.953Z,25.00
2018-07-09T01:30:14.779Z,25.00
2018-07-09T01:31:18.128Z,25.00
2018-07-09T01:32:21.448Z,25.00
2018-07-09T01:33:24.773Z,25.00
2018-07-09T01:34:28.085Z,25.00
2018-07-09T01:35:31.479Z,25.00
2018-07-09T01:36:34.800Z,25.00
2018-07-09T01:37:38.657Z,25.00
2018-07-09T01:38:41.969Z,25.00
2018-07-09T01:39:45.452Z,25.00
2018-07-09T01:40:48.823Z,25.20
2018-07-09T01:41:52.204Z,25.30
2018-07-09T01:42:55.517Z,25.30
2018-07-09T01:43:58.995Z,25.40
2018-07-09T01:45:02.373Z,25.40
2018-07-09T01:46:05.676Z,25.40
2018-07-09T01:47:09.005Z,25.40
2018-07-09T01:48:12.448Z,25.40
2018-07-09T01:49:15.785Z,25.40
2018-07-09T01:50:19.140Z,25.60
2018-07-09T01:51:22.534Z,26.10
2018-07-09T01:52:25.864Z,25.60
2018-07-09T01:53:29.361Z,25.70
2018-07-09T01:54:32.673Z,25.70
2018-07-09T01:55:36.076Z,25.70
2018-07-09T01:56:39.369Z,25.70
2018-07-09T01:57:42.668Z,25.70
2018-07-09T01:58:46.017Z,25.80
2018-07-09T01:59:49.351Z,25.80
2018-07-09T02:00:52.732Z,25.80
2018-07-09T02:02:59.084Z,26.00
2018-07-09T02:04:02.396Z,25.90
2018-07-09T02:05:05.721Z,25.90
2018-07-09T02:06:09.021Z,25.80
2018-07-09T02:07:12.324Z,25.80
2018-07-09T02:08:15.637Z,25.90
2018-07-09T02:09:18.961Z,26.00
2018-07-09T02:10:22.425Z,25.80
2018-07-09T02:11:25.757Z,25.80
2018-07-09T02:12:29.247Z,25.90
2018-07-09T02:13:32.724Z,25.90
2018-07-09T02:14:36.061Z,26.60
2018-07-09T02:15:39.531Z,25.90
2018-07-09T02:16:42.855Z,25.80
2018-07-09T02:17:46.208Z,26.40
2018-07-09T02:18:49.608Z,25.90
2018-07-09T02:19:53.150Z,25.90
2018-07-09T02:20:56.753Z,25.80
2018-07-09T02:22:00.160Z,25.90
2018-07-09T02:23:03.482Z,25.90
2018-07-09T02:24:06.931Z,25.90
2018-07-09T02:26:13.276Z,25.80
2018-07-09T02:27:16.616Z,25.90
2018-07-09T02:28:20.381Z,26.00
2018-07-09T02:29:23.704Z,26.00
2018-07-09T02:30:27.206Z,26.00
2018-07-09T02:31:30.500Z,26.10
2018-07-09T02:32:33.838Z,26.00
2018-07-09T02:33:37.289Z,26.10
2018-07-09T02:34:40.677Z,26.10
2018-07-09T02:35:44.078Z,26.10
2018-07-09T02:36:47.388Z,26.10
2018-07-09T02:37:50.701Z,26.10
2018-07-09T02:38:54.057Z,26.10
2018-07-09T02:39:57.442Z,26.20
2018-07-09T02:41:00.816Z,26.20
2018-07-09T02:42:04.138Z,26.30
2018-07-09T02:43:07.528Z,26.30
2018-07-09T02:44:10.890Z,26.30
2018-07-09T02:45:14.255Z,26.20
2018-07-09T02:46:17.767Z,26.30
2018-07-09T02:47:21.077Z,26.30
2018-07-09T02:48:24.380Z,26.20
2018-07-09T02:49:27.808Z,26.20
2018-07-09T02:50:31.149Z,26.20
2018-07-09T02:52:37.644Z,26.10
2018-07-09T02:53:40.981Z,26.20
2018-07-09T02:54:44.313Z,26.10
2018-07-09T02:55:47.657Z,26.10
2018-07-09T02:56:51.082Z,26.20
2018-07-09T02:57:54.434Z,26.20
2018-07-09T03:00:00.998Z,26.40
2018-07-09T03:01:04.412Z,26.30
2018-07-09T03:02:07.642Z,26.40
2018-07-09T03:03:10.981Z,26.40
2018-07-09T03:04:14.318Z,26.40
2018-07-09T03:05:17.772Z,26.30
2018-07-09T03:06:21.164Z,26.40
2018-07-09T03:07:24.481Z,26.40
2018-07-09T03:08:27.944Z,26.40
2018-07-09T03:09:31.292Z,26.40
2018-07-09T03:10:34.838Z,26.40
2018-07-09T03:11:38.244Z,26.40
2018-07-09T03:12:41.622Z,26.50
2018-07-09T03:13:45.008Z,26.50
2018-07-09T03:14:48.323Z,27.10
2018-07-09T03:15:52.540Z,26.60
2018-07-09T03:16:55.874Z,26.60
2018-07-09T03:17:59.242Z,26.60
2018-07-09T03:19:02.666Z,26.70
2018-07-09T03:20:05.982Z,26.70
2018-07-09T03:21:09.424Z,26.70
2018-07-09T03:22:12.778Z,26.70
2018-07-09T03:23:16.229Z,26.90
2018-07-09T03:24:19.558Z,26.80
2018-07-09T03:25:22.868Z,26.90
2018-07-09T03:26:26.213Z,27.00
2018-07-09T03:27:29.545Z,27.00
2018-07-09T03:28:32.868Z,27.00
2018-07-09T03:29:36.381Z,27.00
2018-07-09T03:30:39.727Z,26.90
2018-07-09T03:31:43.089Z,26.90
2018-07-09T03:32:46.736Z,27.00
2018-07-09T03:33:50.511Z,26.90
2018-07-09T03:34:53.815Z,26.90
2018-07-09T03:35:57.164Z,27.00
2018-07-09T03:37:00.589Z,26.90
2018-07-09T03:38:03.916Z,27.00
2018-07-09T03:39:07.259Z,26.90
2018-07-09T03:40:10.669Z,27.00
2018-07-09T03:41:13.995Z,27.00
2018-07-09T03:42:17.400Z,26.90
2018-07-09T03:43:20.713Z,27.00
2018-07-09T03:44:24.053Z,26.90
2018-07-09T03:45:27.438Z,27.00
2018-07-09T03:46:30.857Z,27.10
2018-07-09T03:47:34.428Z,27.00
2018-07-09T03:48:37.761Z,27.10
2018-07-09T03:49:41.100Z,27.00
2018-07-09T03:50:44.458Z,27.10
2018-07-09T03:51:47.913Z,27.20
2018-07-09T03:52:51.250Z,27.20
2018-07-09T03:53:54.564Z,27.20
2018-07-09T03:54:57.952Z,27.10
2018-07-09T03:56:02.222Z,27.20
2018-07-09T03:57:05.645Z,27.20
2018-07-09T03:58:09.001Z,27.10
2018-07-09T03:59:12.346Z,27.20
2018-07-09T04:00:15.903Z,27.20
2018-07-09T04:01:19.240Z,27.20
2018-07-09T04:02:22.668Z,27.40
2018-07-09T04:03:25.988Z,27.30
2018-07-09T04:04:29.322Z,27.40
2018-07-09T04:05:32.633Z,27.30
2018-07-09T04:06:36.193Z,27.20
2018-07-09T04:07:39.488Z,27.10
2018-07-09T04:08:42.902Z,27.10
2018-07-09T04:09:46.443Z,27.00
2018-07-09T04:10:49.767Z,27.10
2018-07-09T04:11:53.082Z,27.00
2018-07-09T04:12:56.525Z,27.30
2018-07-09T04:13:59.880Z,27.20
2018-07-09T04:15:03.273Z,27.20
2018-07-09T04:16:06.654Z,27.30
2018-07-09T04:17:09.954Z,27.40
2018-07-09T04:18:13.740Z,27.20
2018-07-09T04:19:17.070Z,27.80
2018-07-09T04:20:20.447Z,27.20
2018-07-09T04:21:23.769Z,27.30
2018-07-09T04:23:30.303Z,27.20
2018-07-09T04:24:33.692Z,27.20
2018-07-09T04:25:37.068Z,27.30
2018-07-09T04:26:40.384Z,27.30
2018-07-09T04:27:43.721Z,27.50
2018-07-09T04:28:47.057Z,27.50
2018-07-09T04:29:50.576Z,27.50
2018-07-09T04:30:53.901Z,27.50
2018-07-09T04:31:57.220Z,27.50
2018-07-09T04:33:00.557Z,27.60
2018-07-09T04:34:03.904Z,27.70
2018-07-09T04:36:10.392Z,27.80
2018-07-09T04:37:13.724Z,27.90
2018-07-09T04:38:17.353Z,27.80
2018-07-09T04:39:20.800Z,27.80
2018-07-09T04:40:24.195Z,28.00
2018-07-09T04:42:31.522Z,28.00
2018-07-09T04:43:35.104Z,28.50
2018-07-09T04:44:38.544Z,27.90
2018-07-09T04:45:41.967Z,28.00
2018-07-09T04:46:45.477Z,27.90
2018-07-09T04:47:48.849Z,27.90
2018-07-09T04:48:52.309Z,27.80
2018-07-09T04:49:55.645Z,27.80
2018-07-09T04:50:59.553Z,27.90
2018-07-09T04:52:02.888Z,28.00
2018-07-09T04:53:06.229Z,27.80
2018-07-09T04:54:09.565Z,27.70
2018-07-09T04:55:12.940Z,27.60
2018-07-09T04:56:16.273Z,27.80
2018-07-09T04:57:19.645Z,27.90
2018-07-09T04:58:22.960Z,27.80
2018-07-09T04:59:26.281Z,27.70
2018-07-09T05:01:32.764Z,27.80
2018-07-09T05:02:36.203Z,27.80
2018-07-09T05:03:39.564Z,27.80
2018-07-09T05:04:42.886Z,28.10
2018-07-09T05:05:46.251Z,27.90
2018-07-09T05:06:49.544Z,27.90
2018-07-09T05:07:53.087Z,27.80
2018-07-09T05:08:56.464Z,27.80
2018-07-09T05:09:59.863Z,27.90
2018-07-09T05:11:03.181Z,28.00
2018-07-09T05:12:06.892Z,27.90
2018-07-09T05:13:10.407Z,28.10
2018-07-09T05:14:13.718Z,28.00
2018-07-09T05:15:17.041Z,28.00
2018-07-09T05:16:20.362Z,28.00
2018-07-09T05:17:23.700Z,28.00
2018-07-09T05:18:27.033Z,27.90
2018-07-09T05:19:30.395Z,28.10
2018-07-09T05:20:33.849Z,28.00
2018-07-09T05:21:37.176Z,28.10
2018-07-09T05:23:44.021Z,28.00
2018-07-09T05:24:47.529Z,28.10
2018-07-09T05:25:51.172Z,28.00
2018-07-09T05:26:54.712Z,28.10
2018-07-09T05:27:58.056Z,28.10
2018-07-09T05:29:01.492Z,28.80
2018-07-09T05:30:05.060Z,28.30
2018-07-09T05:31:08.388Z,28.10
2018-07-09T05:32:11.706Z,28.10
2018-07-09T05:33:15.257Z,28.00
2018-07-09T05:34:18.578Z,27.00
2018-07-09T05:35:25.770Z,27.10
2018-07-09T05:36:29.266Z,27.00
2018-07-09T05:37:32.792Z,26.80
2018-07-09T05:38:36.184Z,26.30
2018-07-09T05:39:40.074Z,26.20
2018-07-09T05:40:43.372Z,26.10
2018-07-09T05:41:46.892Z,26.10
2018-07-09T05:42:50.492Z,26.70
2018-07-09T05:43:53.976Z,25.70
2018-07-09T05:44:57.448Z,25.90
2018-07-09T05:46:00.924Z,26.00
2018-07-09T05:47:06.381Z,26.20
2018-07-09T05:48:09.732Z,26.20
2018-07-09T05:49:13.133Z,26.20
2018-07-09T05:50:16.812Z,26.20
2018-07-09T05:51:20.324Z,26.10
2018-07-09T05:52:23.640Z,25.80
2018-07-09T05:54:30.152Z,25.60
2018-07-09T05:55:33.529Z,25.50
2018-07-09T05:56:37.015Z,25.20
2018-07-09T05:57:40.348Z,25.20
2018-07-09T05:58:43.834Z,25.20
2018-07-09T05:59:47.280Z,25.20
2018-07-09T06:00:50.676Z,25.10
2018-07-09T06:01:54.044Z,25.00
2018-07-09T06:02:57.569Z,25.00
2018-07-09T06:04:00.925Z,25.00
2018-07-09T06:05:04.364Z,24.70
2018-07-09T06:06:07.685Z,24.80
2018-07-09T06:07:11.032Z,25.00
2018-07-09T06:08:14.365Z,25.10
2018-07-09T06:09:17.783Z,25.70
2018-07-09T06:10:21.278Z,25.50
2018-07-09T06:11:24.809Z,25.50
2018-07-09T06:12:28.113Z,25.40
2018-07-09T06:13:31.503Z,25.30
2018-07-09T06:14:34.745Z,25.10
2018-07-09T06:15:38.394Z,25.10
2018-07-09T06:16:41.825Z,24.70
2018-07-09T06:17:45.394Z,24.90
2018-07-09T06:18:48.712Z,25.10
2018-07-09T06:19:52.255Z,25.30
2018-07-09T06:20:55.686Z,25.40
2018-07-09T06:21:59.117Z,25.40
2018-07-09T06:23:02.622Z,25.50
2018-07-09T06:24:06.237Z,25.60
2018-07-09T06:25:09.718Z,25.40
2018-07-09T06:26:13.049Z,25.40
2018-07-09T06:27:16.583Z,25.40
2018-07-09T06:28:20.232Z,25.40
2018-07-09T06:29:23.589Z,25.40
2018-07-09T06:30:26.946Z,25.30
2018-07-09T06:31:30.629Z,25.40
2018-07-09T06:32:33.887Z,25.30
2018-07-09T06:33:37.207Z,25.20
2018-07-09T06:34:40.577Z,25.20
2018-07-09T06:35:43.992Z,25.20
2018-07-09T06:36:48.554Z,25.10
2018-07-09T06:37:52.029Z,24.80
2018-07-09T06:38:55.586Z,25.10
2018-07-09T06:41:02.714Z,25.00
2018-07-09T06:42:06.199Z,25.10
2018-07-09T06:43:09.719Z,25.10
2018-07-09T06:44:13.106Z,25.20
2018-07-09T06:45:16.535Z,25.40
2018-07-09T06:46:19.921Z,25.40
2018-07-09T06:47:23.540Z,25.30
2018-07-09T06:48:26.933Z,25.30
2018-07-09T06:49:30.253Z,25.40
2018-07-09T06:50:33.558Z,25.30
2018-07-09T06:51:36.868Z,25.30
2018-07-09T06:52:40.193Z,25.40
2018-07-09T06:53:43.537Z,25.30
2018-07-09T06:54:46.948Z,25.30
2018-07-09T06:55:50.656Z,25.40
2018-07-09T06:56:54.013Z,25.40
2018-07-09T06:57:57.457Z,25.40
2018-07-09T07:00:04.031Z,25.30
2018-07-09T07:01:07.402Z,25.50
2018-07-09T07:02:11.979Z,25.50
2018-07-09T07:04:18.471Z,25.60
2018-07-09T07:05:21.837Z,25.70
2018-07-09T07:06:25.499Z,25.70
2018-07-09T07:07:28.975Z,25.70
2018-07-09T07:09:35.604Z,25.80
2018-07-09T07:10:39.078Z,25.90
2018-07-09T07:11:42.381Z,25.70
2018-07-09T07:12:45.866Z,25.70
2018-07-09T07:13:49.215Z,25.60
2018-07-09T07:14:52.690Z,25.70
2018-07-09T07:15:56.269Z,25.70
2018-07-09T07:16:59.632Z,25.90
2018-07-09T07:18:03.010Z,25.90
2018-07-09T07:19:06.350Z,25.90
2018-07-09T07:20:09.771Z,26.00
2018-07-09T07:21:13.150Z,25.90
2018-07-09T07:22:16.494Z,26.00
2018-07-09T07:23:20.353Z,25.80
2018-07-09T07:24:23.754Z,25.90
2018-07-09T07:25:27.485Z,25.80
2018-07-09T07:26:30.974Z,25.80
2018-07-09T07:27:34.373Z,25.80
2018-07-09T07:28:37.886Z,25.90
2018-07-09T07:29:41.596Z,25.90
2018-07-09T07:30:44.948Z,25.90
2018-07-09T07:31:48.322Z,25.90
2018-07-09T07:32:51.870Z,25.80
2018-07-09T07:33:55.115Z,25.90
2018-07-09T07:34:58.487Z,25.80
2018-07-09T07:36:01.901Z,25.80
2018-07-09T07:37:05.708Z,25.80
2018-07-09T07:38:09.070Z,26.20
2018-07-09T07:39:12.362Z,25.90
2018-07-09T07:40:15.740Z,26.00
2018-07-09T07:41:19.215Z,26.00
2018-07-09T07:42:22.568Z,26.00
2018-07-09T07:43:25.901Z,26.00
2018-07-09T07:44:29.303Z,26.00
2018-07-09T07:45:32.641Z,26.00
2018-07-09T07:46:36.110Z,26.00
2018-07-09T07:47:39.453Z,26.10
2018-07-09T07:48:42.974Z,26.00
2018-07-09T07:49:46.348Z,26.30
2018-07-09T07:50:49.692Z,26.20
2018-07-09T07:51:53.347Z,26.20
2018-07-09T07:52:56.720Z,26.10
2018-07-09T07:54:00.071Z,26.60
2018-07-09T07:55:03.546Z,26.40
2018-07-09T07:56:07.010Z,26.30
2018-07-09T07:57:10.586Z,26.20
2018-07-09T07:58:13.984Z,26.20
2018-07-09T07:59:17.331Z,26.20
2018-07-09T08:00:20.713Z,26.20
2018-07-09T08:01:24.239Z,26.10
2018-07-09T08:02:27.617Z,26.20
2018-07-09T08:03:31.005Z,26.20
2018-07-09T08:04:34.305Z,26.20
2018-07-09T08:05:37.607Z,26.30
2018-07-09T08:06:41.200Z,26.30
2018-07-09T08:07:44.758Z,26.30
2018-07-09T08:08:48.084Z,26.20
2018-07-09T08:09:51.527Z,26.30
2018-07-09T08:10:54.864Z,26.30
2018-07-09T08:12:59.668Z,26.30
2018-07-09T08:14:05.029Z,26.40
2018-07-09T08:15:08.527Z,26.40
2018-07-09T08:16:12.066Z,26.30
2018-07-09T08:17:15.522Z,26.30
2018-07-09T08:18:18.989Z,26.30
2018-07-09T08:19:22.341Z,26.40
2018-07-09T08:20:25.662Z,26.40
2018-07-09T08:21:29.031Z,26.40
2018-07-09T08:22:32.577Z,26.50
2018-07-09T08:23:36.088Z,26.50
2018-07-09T08:24:39.413Z,26.40
2018-07-09T08:25:43.161Z,26.40
2018-07-09T08:26:47.063Z,26.40
2018-07-09T08:27:50.605Z,26.40
2018-07-09T08:28:53.969Z,26.50
2018-07-09T08:31:00.869Z,26.40
2018-07-09T08:32:04.262Z,26.50
2018-07-09T08:33:07.721Z,26.40
2018-07-09T08:34:11.107Z,26.50
2018-07-09T08:35:14.481Z,26.40
2018-07-09T08:36:17.855Z,26.40
2018-07-09T08:37:21.196Z,26.50
2018-07-09T08:38:24.690Z,26.40
2018-07-09T08:39:28.116Z,26.40
2018-07-09T08:40:31.792Z,26.50
2018-07-09T08:41:35.147Z,26.50
2018-07-09T08:42:38.532Z,26.80
2018-07-09T08:43:41.964Z,26.50
2018-07-09T08:44:45.460Z,26.40
2018-07-09T08:45:48.977Z,26.50
2018-07-09T08:46:52.381Z,26.50
2018-07-09T08:47:55.785Z,26.50
2018-07-09T08:48:59.460Z,26.50
2018-07-09T08:50:03.032Z,26.50
2018-07-09T08:52:09.444Z,26.50
2018-07-09T08:53:12.921Z,26.40
2018-07-09T08:54:16.496Z,26.60
2018-07-09T08:55:19.884Z,26.60
2018-07-09T08:56:23.297Z,26.60
2018-07-09T08:57:26.647Z,26.70
2018-07-09T08:58:30.108Z,26.70
2018-07-09T09:00:37.272Z,26.80
2018-07-09T09:01:40.652Z,26.70
2018-07-09T09:02:44.069Z,26.80
2018-07-09T09:03:47.406Z,26.70
2018-07-09T09:04:50.945Z,26.70
2018-07-09T09:05:54.307Z,26.80
2018-07-09T09:06:57.644Z,26.70
2018-07-09T09:08:01.009Z,26.90
2018-07-09T09:09:05.289Z,26.80
2018-07-09T09:10:08.657Z,26.80
2018-07-09T09:11:11.949Z,26.70
2018-07-09T09:12:15.572Z,27.00
2018-07-09T09:13:19.197Z,27.10
2018-07-09T09:14:22.978Z,27.40
2018-07-09T09:15:26.337Z,27.00
2018-07-09T09:16:29.755Z,26.70
2018-07-09T09:17:33.049Z,26.50
2018-07-09T09:18:36.426Z,26.50
2018-07-09T09:19:39.715Z,26.60
2018-07-09T09:20:43.033Z,26.50
2018-07-09T09:21:46.409Z,26.70
2018-07-09T09:22:49.768Z,26.60
2018-07-09T09:23:53.102Z,26.40
2018-07-09T09:24:56.409Z,26.50
2018-07-09T09:25:59.745Z,26.40
2018-07-09T09:27:03.204Z,26.40
2018-07-09T09:28:06.551Z,26.40
2018-07-09T09:29:09.896Z,26.40
2018-07-09T09:30:13.302Z,26.30
2018-07-09T09:31:17.459Z,26.20
2018-07-09T09:32:20.745Z,26.20
2018-07-09T09:33:24.386Z,26.20
2018-07-09T09:34:28.546Z,26.20
2018-07-09T09:35:32.052Z,26.30
2018-07-09T09:36:35.396Z,26.30
2018-07-09T09:37:38.912Z,26.70
2018-07-09T09:38:42.419Z,26.20
2018-07-09T09:39:45.786Z,26.30
2018-07-09T09:40:49.220Z,26.30
2018-07-09T09:41:52.581Z,26.20
2018-07-09T09:42:56.129Z,26.30
2018-07-09T09:43:59.620Z,26.20
2018-07-09T09:45:02.974Z,26.20
2018-07-09T09:46:07.255Z,26.20
2018-07-09T09:47:10.640Z,26.20
2018-07-09T09:48:14.421Z,26.70
2018-07-09T09:49:17.916Z,26.20
2018-07-09T09:50:21.274Z,26.20
2018-07-09T09:51:24.592Z,26.20
2018-07-09T09:52:27.977Z,26.20
2018-07-09T09:53:31.473Z,26.10
2018-07-09T09:54:35.041Z,26.20
2018-07-09T09:55:38.599Z,26.10
2018-07-09T09:56:42.032Z,25.90
2018-07-09T09:57:45.483Z,26.00
2018-07-09T09:58:49.033Z,25.90
2018-07-09T09:59:52.455Z,25.60
2018-07-09T10:00:55.785Z,25.50
2018-07-09T10:01:59.204Z,25.50
2018-07-09T10:04:05.748Z,26.10
2018-07-09T10:05:09.072Z,26.30
2018-07-09T10:06:12.548Z,26.20
2018-07-09T10:07:15.912Z,25.90
2018-07-09T10:08:19.345Z,26.30
2018-07-09T10:09:22.718Z,26.30
2018-07-09T10:10:26.189Z,26.60
2018-07-09T10:11:29.530Z,26.70
2018-07-09T10:12:32.867Z,26.80
2018-07-09T10:13:36.418Z,26.40
2018-07-09T10:14:39.745Z,26.50
2018-07-09T10:15:43.548Z,26.10
2018-07-09T10:16:47.026Z,26.00
2018-07-09T10:17:50.689Z,25.80
2018-07-09T10:18:54.001Z,25.30
2018-07-09T10:19:57.346Z,25.30
2018-07-09T10:21:00.677Z,25.30
2018-07-09T10:22:04.025Z,25.30
2018-07-09T10:23:07.572Z,25.30
2018-07-09T10:24:10.747Z,25.30
2018-07-09T10:25:14.070Z,25.30
2018-07-09T10:26:17.456Z,25.30
2018-07-09T10:27:20.809Z,25.30
2018-07-09T10:28:24.276Z,25.30
2018-07-09T10:29:27.786Z,25.30
2018-07-09T10:30:31.232Z,25.30
2018-07-09T10:31:34.537Z,25.30
2018-07-09T10:32:37.875Z,25.30
2018-07-09T10:33:41.396Z,25.30
2018-07-09T10:34:44.829Z,25.30
2018-07-09T10:35:48.152Z,25.30
2018-07-09T10:36:51.522Z,25.30
2018-07-09T10:37:54.922Z,25.70
2018-07-09T10:38:58.461Z,25.30
2018-07-09T10:40:01.826Z,25.90
2018-07-09T10:41:05.312Z,25.00
2018-07-09T10:42:08.800Z,25.30
2018-07-09T10:43:12.195Z,25.00
2018-07-09T10:44:15.598Z,25.00
2018-07-09T10:45:18.927Z,25.00
2018-07-09T10:46:22.459Z,25.00
2018-07-09T10:47:25.802Z,25.00
2018-07-09T10:48:29.117Z,25.00
2018-07-09T10:49:32.579Z,25.10
2018-07-09T10:50:36.012Z,25.00
2018-07-09T10:51:39.525Z,25.40
2018-07-09T10:52:43.025Z,25.10
2018-07-09T10:53:46.503Z,25.00
2018-07-09T10:54:49.843Z,24.80
2018-07-09T10:55:53.148Z,24.80
2018-07-09T10:56:56.481Z,24.70
2018-07-09T10:57:59.849Z,24.90
2018-07-09T10:59:03.195Z,24.80
2018-07-09T11:00:06.674Z,24.80
2018-07-09T11:01:10.026Z,24.80
2018-07-09T11:02:13.405Z,24.90
2018-07-09T11:03:16.849Z,24.80
2018-07-09T11:04:20.181Z,24.70
2018-07-09T11:05:23.497Z,24.50
2018-07-09T11:06:26.993Z,24.60
2018-07-09T11:07:30.481Z,24.60
2018-07-09T11:08:33.829Z,24.40
2018-07-09T11:09:37.205Z,24.30
2018-07-09T11:10:40.657Z,24.30
2018-07-09T11:11:43.993Z,24.30
2018-07-09T11:12:47.371Z,24.20
2018-07-09T11:13:50.730Z,24.20
2018-07-09T11:14:54.044Z,24.20
2018-07-09T11:15:57.466Z,24.20
2018-07-09T11:17:00.903Z,24.10
2018-07-09T11:18:04.221Z,24.10
2018-07-09T11:19:07.704Z,24.00
2018-07-09T11:20:11.178Z,24.30
2018-07-09T11:21:14.745Z,24.30
2018-07-09T11:22:18.048Z,24.30
2018-07-09T11:23:21.443Z,24.40
2018-07-09T11:24:24.874Z,24.50
2018-07-09T11:25:28.198Z,24.30
2018-07-09T11:26:31.532Z,24.40
2018-07-09T11:27:34.867Z,24.30
2018-07-09T11:28:38.173Z,24.30
2018-07-09T11:29:41.537Z,24.20
2018-07-09T11:30:44.995Z,24.10
2018-07-09T11:31:48.330Z,24.00
2018-07-09T11:32:51.670Z,23.80
2018-07-09T11:33:55.004Z,23.90
2018-07-09T11:34:58.943Z,23.60
2018-07-09T11:36:02.322Z,23.60
2018-07-09T11:37:05.714Z,23.40
2018-07-09T11:38:09.121Z,23.40
2018-07-09T11:39:12.590Z,23.30
2018-07-09T11:40:16.062Z,23.30
2018-07-09T11:41:19.581Z,23.30
2018-07-09T11:42:23.042Z,23.30
2018-07-09T11:43:26.519Z,23.20
2018-07-09T11:44:29.884Z,23.20
2018-07-09T11:45:33.217Z,23.20
2018-07-09T11:46:36.612Z,23.20
2018-07-09T11:47:39.953Z,23.10
2018-07-09T11:48:43.654Z,23.10
2018-07-09T11:49:46.980Z,23.20
2018-07-09T11:50:50.333Z,23.10
2018-07-09T11:51:53.832Z,23.00
2018-07-09T11:52:57.236Z,22.80
2018-07-09T11:54:00.581Z,22.90
2018-07-09T11:55:03.970Z,22.80
2018-07-09T11:56:07.366Z,22.80
2018-07-09T11:57:10.713Z,22.70
2018-07-09T11:58:14.126Z,22.70
2018-07-09T11:59:17.438Z,22.70
2018-07-09T12:00:20.774Z,22.60
2018-07-09T12:01:24.077Z,22.60
2018-07-09T12:02:27.480Z,22.50
2018-07-09T12:03:30.941Z,22.50
2018-07-09T12:04:34.314Z,22.50
2018-07-09T12:05:37.803Z,22.40
2018-07-09T12:06:41.117Z,22.40
2018-07-09T12:07:44.450Z,22.30
2018-07-09T12:08:47.827Z,22.40
2018-07-09T12:09:51.295Z,22.30
2018-07-09T12:10:54.640Z,22.10
2018-07-09T12:11:57.993Z,22.20
2018-07-09T12:13:01.332Z,22.10
2018-07-09T12:14:04.837Z,22.10
2018-07-09T12:15:08.304Z,22.10
2018-07-09T12:16:11.648Z,22.10
2018-07-09T12:17:15.009Z,22.10
2018-07-09T12:18:18.400Z,22.10
2018-07-09T12:19:21.786Z,22.10
2018-07-09T12:20:25.172Z,22.00
2018-07-09T12:21:28.569Z,22.10
2018-07-09T12:22:31.892Z,21.90
2018-07-09T12:23:35.328Z,22.00
2018-07-09T12:24:38.654Z,21.90
2018-07-09T12:26:45.252Z,22.00
2018-07-09T12:27:48.556Z,21.80
2018-07-09T12:28:52.026Z,21.80
2018-07-09T12:29:55.284Z,21.80
2018-07-09T12:30:58.700Z,21.80
2018-07-09T12:32:02.079Z,21.80
2018-07-09T12:33:05.830Z,22.10
2018-07-09T12:34:09.185Z,21.70
2018-07-09T12:35:12.701Z,21.90
2018-07-09T12:36:16.315Z,21.80
2018-07-09T12:37:19.837Z,22.00
2018-07-09T12:38:23.190Z,22.10
2018-07-09T12:39:26.590Z,22.00
2018-07-09T12:40:29.924Z,22.10
2018-07-09T12:41:33.228Z,22.00
2018-07-09T12:42:36.588Z,22.20
2018-07-09T12:43:40.371Z,22.20
2018-07-09T12:44:43.686Z,22.10
2018-07-09T12:45:47.069Z,22.00
2018-07-09T12:47:53.591Z,22.20
2018-07-09T12:48:56.920Z,22.00
2018-07-09T12:50:00.269Z,21.90
2018-07-09T12:51:03.624Z,21.90
2018-07-09T12:52:07.041Z,22.00
2018-07-09T12:53:10.595Z,21.90
2018-07-09T12:54:14.144Z,22.10
2018-07-09T12:55:17.504Z,22.20
2018-07-09T12:56:21.009Z,22.00
2018-07-09T12:57:24.596Z,21.90
2018-07-09T12:58:28.050Z,21.50
2018-07-09T12:59:31.422Z,21.50
2018-07-09T13:00:34.817Z,21.60
2018-07-09T13:02:41.149Z,21.70
2018-07-09T13:03:44.577Z,21.60
2018-07-09T13:04:47.901Z,21.70
2018-07-09T13:05:51.248Z,21.70
2018-07-09T13:06:54.598Z,21.60
2018-07-09T13:07:57.883Z,21.80
2018-07-09T13:09:01.302Z,22.10
2018-07-09T13:10:04.901Z,21.50
2018-07-09T13:11:08.220Z,21.70
2018-07-09T13:12:11.765Z,21.50
2018-07-09T13:13:15.092Z,21.50
2018-07-09T13:14:18.403Z,21.60
2018-07-09T13:15:22.132Z,21.60
2018-07-09T13:16:25.476Z,21.50
2018-07-09T13:17:29.302Z,21.50
2018-07-09T13:18:32.836Z,21.80
2018-07-09T13:19:36.161Z,21.60
2018-07-09T13:20:39.701Z,21.60
2018-07-09T13:21:43.226Z,21.60
2018-07-09T13:22:46.890Z,21.70
2018-07-09T13:23:50.169Z,21.80
2018-07-09T13:24:53.565Z,21.60
2018-07-09T13:25:57.063Z,22.00
2018-07-09T13:28:03.624Z,21.50
2018-07-09T13:29:06.980Z,21.60
2018-07-09T13:30:10.393Z,21.60
2018-07-09T13:31:13.824Z,21.60
2018-07-09T13:32:17.156Z,21.60
2018-07-09T13:33:20.652Z,21.80
2018-07-09T13:34:24.633Z,21.90
2018-07-09T13:35:28.240Z,22.10
2018-07-09T13:36:31.813Z,22.20
2018-07-09T13:37:35.238Z,22.20
2018-07-09T13:38:38.705Z,22.20
2018-07-09T13:39:42.050Z,22.10
2018-07-09T13:40:45.381Z,22.20
2018-07-09T13:41:48.881Z,22.30
2018-07-09T13:42:52.212Z,22.10
2018-07-09T13:43:55.766Z,22.20
2018-07-09T13:44:59.248Z,22.10
2018-07-09T13:46:02.680Z,22.20
2018-07-09T13:47:06.129Z,22.20
2018-07-09T13:48:09.447Z,22.20
2018-07-09T13:49:13.130Z,22.20
2018-07-09T13:50:16.854Z,22.20
2018-07-09T13:51:20.208Z,22.10
2018-07-09T13:52:23.580Z,22.10
2018-07-09T13:53:27.612Z,22.10
2018-07-09T13:54:31.425Z,22.20
2018-07-09T13:55:34.854Z,22.20
2018-07-09T13:56:38.627Z,22.10
2018-07-09T13:57:42.344Z,22.30
2018-07-09T13:58:45.726Z,22.20
2018-07-09T13:59:49.227Z,22.30
2018-07-09T14:00:52.645Z,22.10
2018-07-09T14:01:56.236Z,21.40
2018-07-09T14:02:59.568Z,21.20
2018-07-09T14:04:02.962Z,22.20